createdAt,value
2023-05-13T00:01:12.307Z,101467.84
2023-05-13T00:03:13.801Z,101465.31
2023-05-13T00:05:15.409Z,101462.72
2023-05-13T00:07:16.837Z,101461.91
2023-05-13T00:09:18.223Z,101462.13
2023-05-13T00:11:19.766Z,101462.28
2023-05-13T00:13:21.518Z,101462.41
2023-05-13T00:15:23.322Z,101468.06
2023-05-13T00:17:24.993Z,101464.53
2023-05-13T00:19:26.545Z,101471.91
2023-05-13T00:21:27.980Z,101474.88
2023-05-13T00:23:29.578Z,101476.69
2023-05-13T00:25:31.176Z,101475.00
2023-05-13T00:27:32.883Z,101472.31
2023-05-13T00:29:34.358Z,101473.28
2023-05-13T00:31:35.874Z,101469.91
2023-05-13T00:33:37.513Z,101472.72
2023-05-13T00:35:39.523Z,101470.16
2023-05-13T00:37:41.006Z,101475.69
2023-05-13T00:39:42.450Z,101479.38
2023-05-13T00:41:43.952Z,101479.50
2023-05-13T00:43:45.600Z,101474.28
2023-05-13T00:45:47.565Z,101484.31
2023-05-13T00:47:49.563Z,101479.91
2023-05-13T00:49:51.805Z,101478.19
2023-05-13T00:51:55.218Z,101471.97
2023-05-13T00:53:58.583Z,101475.66
2023-05-13T00:56:00.149Z,101477.38
2023-05-13T00:58:01.699Z,101478.50
2023-05-13T01:00:05.815Z,101484.00
2023-05-13T01:02:13.933Z,101476.91
2023-05-13T01:04:15.802Z,101482.44
2023-05-13T01:06:20.587Z,101487.09
2023-05-13T01:08:39.928Z,101480.84
2023-05-13T01:10:50.107Z,101473.91
2023-05-13T01:12:54.623Z,101481.16
2023-05-13T01:15:04.977Z,101482.97
2023-05-13T01:17:15.315Z,101476.59
2023-05-13T01:19:28.954Z,101482.81
2023-05-13T01:21:34.512Z,101481.16
2023-05-13T01:23:36.067Z,101469.50
2023-05-13T01:25:38.362Z,101482.13
2023-05-13T01:27:40.346Z,101475.03
2023-05-13T01:29:42.145Z,101476.00
2023-05-13T01:31:43.975Z,101471.63
2023-05-13T01:33:45.951Z,101482.53
2023-05-13T01:35:47.574Z,101481.66
2023-05-13T01:37:50.215Z,101480.81
2023-05-13T01:39:51.815Z,101488.91
2023-05-13T01:41:53.238Z,101485.47
2023-05-13T01:43:54.864Z,101483.75
2023-05-13T01:46:00.332Z,101491.72
2023-05-13T01:48:01.970Z,101488.31
2023-05-13T01:50:03.633Z,101488.31
2023-05-13T01:52:05.229Z,101497.22
2023-05-13T01:54:06.969Z,101487.47
2023-05-13T01:56:09.235Z,101494.69
2023-05-13T01:58:10.699Z,101492.00
2023-05-13T02:00:12.524Z,101493.84
2023-05-13T02:02:14.137Z,101487.72
2023-05-13T02:04:15.770Z,101497.66
2023-05-13T02:06:17.210Z,101491.53
2023-05-13T02:08:18.730Z,101502.19
2023-05-13T02:10:20.344Z,101500.34
2023-05-13T02:12:21.884Z,101500.34
2023-05-13T02:14:23.312Z,101496.78
2023-05-13T02:16:24.947Z,101494.09
2023-05-13T02:18:26.468Z,101497.66
2023-05-13T02:20:28.225Z,101485.28
2023-05-13T02:22:29.667Z,101485.28
2023-05-13T02:24:31.235Z,101493.50
2023-05-13T02:26:32.729Z,101498.19
2023-05-13T02:28:34.557Z,101493.66
2023-05-13T02:30:36.464Z,101488.25
2023-05-13T02:32:37.952Z,101488.25
2023-05-13T02:34:39.423Z,101490.97
2023-05-13T02:36:41.364Z,101489.09
2023-05-13T02:38:42.911Z,101482.72
2023-05-13T02:40:44.424Z,101489.00
2023-05-13T02:42:45.854Z,101484.59
2023-05-13T02:44:48.485Z,101481.91
2023-05-13T02:46:50.058Z,101482.88
2023-05-13T02:48:51.498Z,101482.88
2023-05-13T02:50:52.945Z,101476.75
2023-05-13T02:52:54.408Z,101476.91
2023-05-13T02:54:55.957Z,101480.56
2023-05-13T02:56:57.418Z,101492.22
2023-05-13T02:58:58.942Z,101487.69
2023-05-13T03:01:00.475Z,101490.22
2023-05-13T03:03:02.274Z,101487.44
2023-05-13T03:05:04.273Z,101489.09
2023-05-13T03:07:05.937Z,101476.44
2023-05-13T03:09:07.455Z,101492.81
2023-05-13T03:11:08.970Z,101497.31
2023-05-13T03:13:10.529Z,101495.63
2023-05-13T03:15:12.277Z,101492.09
2023-05-13T03:17:13.768Z,101491.34
2023-05-13T03:19:15.304Z,101492.22
2023-05-13T03:21:16.909Z,101495.91
2023-05-13T03:23:18.370Z,101494.03
2023-05-13T03:25:20.234Z,101486.84
2023-05-13T03:27:21.696Z,101495.63
2023-05-13T03:29:23.391Z,101494.78
2023-05-13T03:31:25.036Z,101501.00
2023-05-13T03:33:26.667Z,101492.91
2023-05-13T03:35:28.085Z,101490.22
2023-05-13T03:37:29.490Z,101498.44
2023-05-13T03:39:30.946Z,101500.31
2023-05-13T03:41:32.534Z,101499.44
2023-05-13T03:43:33.986Z,101499.44
2023-05-13T03:45:35.420Z,101497.72
2023-05-13T03:47:39.136Z,101498.59
2023-05-13T03:49:40.597Z,101499.44
2023-05-13T03:51:42.027Z,101503.84
2023-05-13T03:53:43.502Z,101501.00
2023-05-13T03:55:46.001Z,101494.78
2023-05-13T03:57:48.198Z,101505.53
2023-05-13T03:59:49.763Z,101505.53
2023-05-13T04:01:51.217Z,101510.94
2023-05-13T04:03:52.723Z,101505.69
2023-05-13T04:05:54.343Z,101510.19
2023-05-13T04:07:55.876Z,101514.75
2023-05-13T04:09:57.362Z,101516.56
2023-05-13T04:11:58.809Z,101517.44
2023-05-13T04:14:00.457Z,101513.88
2023-05-13T04:16:02.353Z,101522.81
2023-05-13T04:18:03.900Z,101520.13
2023-05-13T04:20:05.716Z,101520.97
2023-05-13T04:22:07.199Z,101526.34
2023-05-13T04:24:08.720Z,101523.81
2023-05-13T04:26:10.905Z,101535.31
2023-05-13T04:28:12.407Z,101531.75
2023-05-13T04:30:14.195Z,101536.28
2023-05-13T04:32:21.208Z,101531.88
2023-05-13T04:34:22.717Z,101531.88
2023-05-13T04:36:24.117Z,101530.13
2023-05-13T04:38:25.597Z,101531.88
2023-05-13T04:40:27.128Z,101533.66
2023-05-13T04:42:28.714Z,101530.03
2023-05-13T04:44:30.163Z,101538.09
2023-05-13T04:46:31.750Z,101537.13
2023-05-13T04:48:33.378Z,101532.72
2023-05-13T04:50:35.341Z,101545.22
2023-05-13T04:52:37.472Z,101542.66
2023-05-13T04:54:39.533Z,101548.03
2023-05-13T04:56:41.228Z,101557.06
2023-05-13T04:58:42.772Z,101556.22
2023-05-13T05:00:44.223Z,101557.06
2023-05-13T05:02:45.762Z,101559.91
2023-05-13T05:04:49.339Z,101564.19
2023-05-13T05:06:50.863Z,101565.97
2023-05-13T05:08:52.318Z,101563.22
2023-05-13T05:10:53.903Z,101569.44
2023-05-13T05:12:55.365Z,101571.28
2023-05-13T05:14:56.975Z,101552.47
2023-05-13T05:16:58.441Z,101567.72
2023-05-13T05:18:59.959Z,101581.31
2023-05-13T05:21:02.628Z,101579.44
2023-05-13T05:23:04.162Z,101583.16
2023-05-13T05:25:05.738Z,101585.84
2023-05-13T05:27:07.294Z,101587.66
2023-05-13T05:29:08.783Z,101585.84
2023-05-13T05:31:13.392Z,101589.38
2023-05-13T05:33:14.811Z,101599.19
2023-05-13T05:35:16.885Z,101604.59
2023-05-13T05:37:18.538Z,101602.75
2023-05-13T05:39:20.360Z,101607.16
2023-05-13T05:41:22.193Z,101609.00
2023-05-13T05:43:23.717Z,101609.00
2023-05-13T05:45:25.181Z,101611.69
2023-05-13T05:47:26.734Z,101609.97
2023-05-13T05:49:28.202Z,101611.75
2023-05-13T05:51:29.653Z,101618.06
2023-05-13T05:53:32.045Z,101613.63
2023-05-13T05:55:33.489Z,101618.91
2023-05-13T05:57:34.872Z,101625.16
2023-05-13T05:59:36.335Z,101627.84
2023-05-13T06:01:38.065Z,101624.16
2023-05-13T06:03:39.594Z,101635.66
2023-05-13T06:05:41.228Z,101626.72
2023-05-13T06:07:42.708Z,101630.41
2023-05-13T06:09:44.184Z,101635.78
2023-05-13T06:11:45.709Z,101631.38
2023-05-13T06:13:47.077Z,101643.03
2023-05-13T06:15:48.484Z,101639.47
2023-05-13T06:17:50.032Z,101643.13
2023-05-13T06:19:51.454Z,101637.75
2023-05-13T06:21:52.930Z,101650.22
2023-05-13T06:23:54.547Z,101651.09
2023-05-13T06:25:57.406Z,101644.84
2023-05-13T06:27:59.763Z,101649.38
2023-05-13T06:30:03.079Z,101660.16
2023-05-13T06:32:04.865Z,101656.59
2023-05-13T06:34:06.336Z,101665.53
2023-05-13T06:36:09.361Z,101666.53
2023-05-13T06:38:11.037Z,101665.63
2023-05-13T06:40:12.886Z,101676.38
2023-05-13T06:42:14.525Z,101667.38
2023-05-13T06:44:15.960Z,101670.94
2023-05-13T06:46:17.369Z,101672.75
2023-05-13T06:48:18.781Z,101669.94
2023-05-13T06:50:20.659Z,101665.53
2023-05-13T06:52:22.293Z,101669.06
2023-05-13T06:54:23.813Z,101676.19
2023-05-13T06:56:25.907Z,101678.72
2023-05-13T06:58:27.801Z,101676.03
2023-05-13T07:00:29.564Z,101676.19
2023-05-13T07:02:31.286Z,101679.59
2023-05-13T07:04:32.773Z,101676.91
2023-05-13T07:06:34.570Z,101677.75
2023-05-13T07:08:36.233Z,101685.00
2023-05-13T07:10:37.635Z,101673.34
2023-05-13T07:12:39.096Z,101686.81
2023-05-13T07:14:40.540Z,101680.44
2023-05-13T07:16:42.121Z,101676.78
2023-05-13T07:18:43.973Z,101676.78
2023-05-13T07:20:45.528Z,101681.19
2023-05-13T07:22:46.926Z,101680.31
2023-05-13T07:24:48.358Z,101680.31
2023-05-13T07:26:49.782Z,101682.16
2023-05-13T07:28:51.461Z,101687.56
2023-05-13T07:30:53.438Z,101676.78
2023-05-13T07:32:54.999Z,101676.78
2023-05-13T07:34:56.448Z,101679.34
2023-05-13T07:36:58.027Z,101680.31
2023-05-13T07:38:59.538Z,101684.72
2023-05-13T07:41:01.164Z,101682.03
2023-05-13T07:43:02.538Z,101690.97
2023-05-13T07:45:04.530Z,101689.13
2023-05-13T07:47:06.175Z,101698.06
2023-05-13T07:49:08.822Z,101704.31
2023-05-13T07:51:10.686Z,101699.91
2023-05-13T07:53:12.375Z,101700.28
2023-05-13T07:55:13.840Z,101703.13
2023-05-13T07:57:15.449Z,101701.56
2023-05-13T07:59:18.160Z,101705.63
2023-05-13T08:01:19.675Z,101707.38
2023-05-13T08:03:21.313Z,101710.94
2023-05-13T08:05:22.972Z,101702.75
2023-05-13T08:07:24.682Z,101708.81
2023-05-13T08:09:26.070Z,101708.81
2023-05-13T08:11:27.805Z,101704.91
2023-05-13T08:13:29.272Z,101706.00
2023-05-13T08:15:30.868Z,101711.59
2023-05-13T08:17:32.500Z,101706.72
2023-05-13T08:19:33.945Z,101701.06
2023-05-13T08:21:35.396Z,101711.94
2023-05-13T08:23:44.844Z,101718.75
2023-05-13T08:25:47.683Z,101712.13
2023-05-13T08:27:49.250Z,101709.91
2023-05-13T08:29:50.832Z,101716.72
2023-05-13T08:31:53.775Z,101721.81
2023-05-13T08:33:55.531Z,101717.00
2023-05-13T08:35:57.248Z,101722.09
2023-05-13T08:37:58.866Z,101725.34
2023-05-13T08:40:01.630Z,101721.94
2023-05-13T08:42:03.588Z,101725.91
2023-05-13T08:44:06.871Z,101724.31
2023-05-13T08:46:12.322Z,101728.09
2023-05-13T08:48:15.460Z,101720.38
2023-05-13T08:50:17.310Z,101721.69
2023-05-13T08:52:19.278Z,101723.06
2023-05-13T08:54:23.794Z,101720.84
2023-05-13T08:56:28.390Z,101718.38
2023-05-13T08:58:29.870Z,101714.94
2023-05-13T09:00:31.738Z,101713.34
2023-05-13T09:02:33.168Z,101714.44
2023-05-13T09:04:37.725Z,101716.38
2023-05-13T09:06:39.260Z,101711.75
2023-05-13T09:08:40.880Z,101717.97
2023-05-13T09:10:42.407Z,101711.97
2023-05-13T09:12:44.419Z,101719.50
2023-05-13T09:14:45.946Z,101722.19
2023-05-13T09:16:47.768Z,101717.97
2023-05-13T09:18:49.562Z,101721.66
2023-05-13T09:20:51.141Z,101721.88
2023-05-13T09:23:04.858Z,101720.25
2023-05-13T09:25:07.852Z,101724.03
2023-05-13T09:27:09.437Z,101721.44
2023-05-13T09:29:15.436Z,101722.81
2023-05-13T09:31:32.228Z,101725.38
2023-05-13T09:33:33.898Z,101727.09
2023-05-13T09:35:45.440Z,101732.38
2023-05-13T09:37:48.003Z,101729.34
2023-05-13T09:39:51.752Z,101729.25
2023-05-13T09:41:53.279Z,101731.69
2023-05-13T09:43:54.677Z,101725.16
2023-05-13T09:45:56.809Z,101723.22
2023-05-13T09:47:58.411Z,101727.31
2023-05-13T09:50:01.686Z,101734.06
2023-05-13T09:52:03.486Z,101722.06
2023-05-13T09:54:06.484Z,101721.22
2023-05-13T09:56:09.727Z,101727.34
2023-05-13T09:58:12.093Z,101715.75
2023-05-13T10:00:28.659Z,101720.16
2023-05-13T10:02:34.840Z,101718.66
2023-05-13T10:04:36.725Z,101713.81
2023-05-13T10:06:39.000Z,101711.91
2023-05-13T10:08:40.789Z,101711.06
2023-05-13T10:10:45.779Z,101706.41
2023-05-13T10:12:47.641Z,101708.38
2023-05-13T10:14:49.993Z,101712.13
2023-05-13T10:16:52.103Z,101718.47
2023-05-13T10:18:53.909Z,101710.19
2023-05-13T10:20:55.619Z,101716.50
2023-05-13T10:22:57.888Z,101713.09
2023-05-13T10:25:00.161Z,101711.38
2023-05-13T10:27:02.118Z,101712.47
2023-05-13T10:29:03.868Z,101705.25
2023-05-13T10:31:05.381Z,101698.72
2023-05-13T10:33:07.233Z,101704.16
2023-05-13T10:35:13.029Z,101698.47
2023-05-13T10:37:17.512Z,101695.88
2023-05-13T10:39:24.961Z,101696.81
2023-05-13T10:41:45.165Z,101699.38
2023-05-13T10:43:46.748Z,101694.25
2023-05-13T10:46:07.607Z,101691.38
2023-05-13T10:48:11.921Z,101699.06
2023-05-13T10:50:24.015Z,101685.19
2023-05-13T10:52:40.935Z,101686.56
2023-05-13T10:54:42.494Z,101680.09
2023-05-13T10:56:43.922Z,101682.16
2023-05-13T10:58:57.609Z,101678.56
2023-05-13T11:01:17.705Z,101674.91
2023-05-13T11:03:19.512Z,101681.78
2023-05-13T11:05:21.482Z,101674.44
2023-05-13T11:07:22.919Z,101681.31
2023-05-13T11:09:28.815Z,101674.59
2023-05-13T11:11:32.864Z,101667.28
2023-05-13T11:13:37.491Z,101667.09
2023-05-13T11:15:46.096Z,101660.63
2023-05-13T11:17:48.118Z,101660.38
2023-05-13T11:19:50.486Z,101656.00
2023-05-13T11:21:53.472Z,101655.25
2023-05-13T11:23:58.161Z,101654.66
2023-05-13T11:26:12.048Z,101656.38
2023-05-13T11:28:18.492Z,101654.03
2023-05-13T11:30:26.008Z,101651.22
2023-05-13T11:32:46.153Z,101640.25
2023-05-13T11:34:50.955Z,101641.69
2023-05-13T11:37:04.576Z,101634.00
2023-05-13T11:39:13.931Z,101632.75
2023-05-13T11:41:15.573Z,101631.44
2023-05-13T11:43:21.781Z,101627.03
2023-05-13T11:45:24.613Z,101624.34
2023-05-13T11:47:29.207Z,101622.16
2023-05-13T11:49:32.830Z,101616.75
2023-05-13T11:51:34.403Z,101619.31
2023-05-13T11:53:36.009Z,101608.69
2023-05-13T11:55:37.449Z,101606.47
2023-05-13T11:57:39.114Z,101595.94
2023-05-13T11:59:47.980Z,101600.81
2023-05-13T12:02:10.275Z,101590.88
2023-05-13T12:04:12.759Z,101594.44
2023-05-13T12:06:14.366Z,101588.09
2023-05-13T12:08:16.081Z,101584.06
2023-05-13T12:10:17.601Z,101583.94
2023-05-13T12:12:19.754Z,101577.31
2023-05-13T12:14:21.600Z,101578.81
2023-05-13T12:16:24.004Z,101573.34
2023-05-13T12:18:25.777Z,101577.63
2023-05-13T12:20:27.523Z,101568.56
2023-05-13T12:22:29.126Z,101574.66
2023-05-13T12:24:34.076Z,101564.69
2023-05-13T12:26:35.712Z,101563.06
2023-05-13T12:28:37.209Z,101562.22
2023-05-13T12:30:42.389Z,101562.88
2023-05-13T12:32:46.942Z,101559.53
2023-05-13T12:34:49.868Z,101562.81
2023-05-13T12:36:51.762Z,101566.34
2023-05-13T12:38:55.178Z,101561.13
2023-05-13T12:40:57.428Z,101559.75
2023-05-13T12:42:59.841Z,101555.59
2023-05-13T12:45:02.202Z,101556.59
2023-05-13T12:47:04.572Z,101559.03
2023-05-13T12:49:06.427Z,101561.72
2023-05-13T12:51:07.923Z,101555.34
2023-05-13T12:53:09.826Z,101552.44
2023-05-13T12:55:13.042Z,101548.91
2023-05-13T12:57:17.802Z,101550.72
2023-05-13T12:59:19.301Z,101548.53
2023-05-13T13:01:21.055Z,101550.09
2023-05-13T13:03:24.502Z,101545.31
2023-05-13T13:05:26.527Z,101540.66
2023-05-13T13:07:28.041Z,101543.75
2023-05-13T13:09:29.525Z,101544.75
2023-05-13T13:11:31.123Z,101543.63
2023-05-13T13:13:33.246Z,101544.22
2023-05-13T13:15:34.658Z,101550.34
2023-05-13T13:17:36.539Z,101541.06
2023-05-13T13:19:38.164Z,101537.50
2023-05-13T13:21:40.193Z,101537.25
2023-05-13T13:23:41.744Z,101527.47
2023-05-13T13:25:43.592Z,101538.22
2023-05-13T13:27:48.354Z,101536.84
2023-05-13T13:29:49.823Z,101532.78
2023-05-13T13:31:52.160Z,101527.28
2023-05-13T13:33:58.877Z,101529.00
2023-05-13T13:36:00.392Z,101528.00
2023-05-13T13:38:01.774Z,101524.59
2023-05-13T13:40:03.502Z,101519.13
2023-05-13T13:42:05.054Z,101513.50
2023-05-13T13:44:06.552Z,101521.06
2023-05-13T13:46:08.140Z,101517.84
2023-05-13T13:48:09.741Z,101512.84
2023-05-13T13:50:11.364Z,101524.72
2023-05-13T13:52:12.811Z,101513.72
2023-05-13T13:54:14.423Z,101506.34
2023-05-13T13:56:15.948Z,101517.59
2023-05-13T13:58:17.600Z,101516.03
2023-05-13T14:00:19.312Z,101510.22
2023-05-13T14:02:20.878Z,101508.72
2023-05-13T14:04:27.560Z,101509.25
2023-05-13T14:06:29.040Z,101502.16
2023-05-13T14:08:30.622Z,101497.38
2023-05-13T14:10:32.210Z,101503.03
2023-05-13T14:12:35.879Z,101495.94
2023-05-13T14:14:37.358Z,101498.34
2023-05-13T14:16:38.854Z,101498.81
2023-05-13T14:18:40.446Z,101498.53
2023-05-13T14:20:41.963Z,101496.72
2023-05-13T14:22:43.432Z,101483.59
2023-05-13T14:24:45.102Z,101478.06
2023-05-13T14:26:46.724Z,101483.13
2023-05-13T14:28:48.259Z,101481.16
2023-05-13T14:30:49.694Z,101477.22
2023-05-13T14:32:51.165Z,101479.31
2023-05-13T14:34:52.606Z,101480.63
2023-05-13T14:36:54.035Z,101474.00
2023-05-13T14:38:55.658Z,101472.69
2023-05-13T14:40:57.087Z,101470.13
2023-05-13T14:42:58.521Z,101470.38
2023-05-13T14:44:59.957Z,101469.78
2023-05-13T14:47:01.717Z,101467.41
2023-05-13T14:49:03.333Z,101470.91
2023-05-13T14:51:05.087Z,101473.88
2023-05-13T14:53:06.573Z,101475.38
2023-05-13T14:55:08.199Z,101469.94
2023-05-13T14:57:09.908Z,101477.47
2023-05-13T14:59:11.613Z,101474.13
2023-05-13T15:01:13.104Z,101463.34
2023-05-13T15:03:14.723Z,101464.16
2023-05-13T15:05:16.289Z,101457.41
2023-05-13T15:07:17.851Z,101460.66
2023-05-13T15:09:19.783Z,101446.50
2023-05-13T15:11:21.661Z,101448.06
2023-05-13T15:13:24.696Z,101437.16
2023-05-13T15:15:26.344Z,101439.28
2023-05-13T15:17:28.891Z,101437.38
2023-05-13T15:19:30.748Z,101439.81
2023-05-13T15:21:32.201Z,101437.91
2023-05-13T15:23:34.046Z,101438.72
2023-05-13T15:25:35.920Z,101448.59
2023-05-13T15:27:37.511Z,101434.81
2023-05-13T15:29:39.089Z,101441.72
2023-05-13T15:31:40.795Z,101444.31
2023-05-13T15:33:43.192Z,101443.06
2023-05-13T15:35:46.499Z,101446.34
2023-05-13T15:37:48.003Z,101442.34
2023-05-13T15:39:49.497Z,101450.03
2023-05-13T15:41:51.428Z,101449.78
2023-05-13T15:43:52.859Z,101446.56
2023-05-13T15:45:54.973Z,101451.56
2023-05-13T15:47:56.575Z,101453.25
2023-05-13T15:49:58.372Z,101442.81
2023-05-13T15:52:00.582Z,101448.97
2023-05-13T15:54:02.131Z,101451.28
2023-05-13T15:56:03.655Z,101441.47
2023-05-13T15:58:05.316Z,101441.81
2023-05-13T16:00:07.680Z,101456.72
2023-05-13T16:02:09.266Z,101461.88
2023-05-13T16:04:11.019Z,101461.88
2023-05-13T16:06:12.632Z,101467.13
2023-05-13T16:08:14.207Z,101460.03
2023-05-13T16:10:15.854Z,101465.16
2023-05-13T16:12:17.302Z,101476.28
2023-05-13T16:14:19.583Z,101471.38
2023-05-13T16:16:21.681Z,101472.94
2023-05-13T16:18:23.881Z,101469.19
2023-05-13T16:20:25.921Z,101479.75
2023-05-13T16:22:32.649Z,101478.53
2023-05-13T16:24:34.385Z,101480.75
2023-05-13T16:26:36.174Z,101489.63
2023-05-13T16:28:37.842Z,101498.63
2023-05-13T16:30:39.448Z,101508.03
2023-05-13T16:32:41.233Z,101518.72
2023-05-13T16:34:42.662Z,101542.75
2023-05-13T16:36:44.086Z,101550.06
2023-05-13T16:38:46.623Z,101540.34
2023-05-13T16:40:48.241Z,101542.19
2023-05-13T16:42:49.792Z,101555.97
2023-05-13T16:44:51.659Z,101558.19
2023-05-13T16:46:53.129Z,101561.19
2023-05-13T16:48:55.820Z,101575.72
2023-05-13T16:50:58.631Z,101581.84
2023-05-13T16:53:00.095Z,101571.19
2023-05-13T16:55:01.606Z,101576.84
2023-05-13T16:57:03.124Z,101566.06
2023-05-13T16:59:04.543Z,101583.94
2023-05-13T17:01:06.092Z,101583.31
2023-05-13T17:03:07.875Z,101585.03
2023-05-13T17:05:09.685Z,101594.47
2023-05-13T17:07:11.307Z,101593.75
2023-05-13T17:09:12.850Z,101572.44
2023-05-13T17:11:17.615Z,101580.69
2023-05-13T17:13:19.744Z,101577.31
2023-05-13T17:15:21.355Z,101581.22
2023-05-13T17:17:22.906Z,101570.56
2023-05-13T17:19:24.441Z,101569.88
2023-05-13T17:21:25.861Z,101569.34
2023-05-13T17:23:27.368Z,101583.38
2023-05-13T17:25:28.854Z,101585.13
2023-05-13T17:27:30.438Z,101580.47
2023-05-13T17:29:31.918Z,101588.16
2023-05-13T17:31:33.711Z,101593.03
2023-05-13T17:33:35.324Z,101580.38
2023-05-13T17:35:36.818Z,101591.78
2023-05-13T17:37:38.193Z,101583.47
2023-05-13T17:39:39.614Z,101586.63
2023-05-13T17:41:41.073Z,101588.72
2023-05-13T17:43:42.638Z,101586.91
2023-05-13T17:45:45.193Z,101590.81
2023-05-13T17:47:46.741Z,101579.22
2023-05-13T17:49:48.315Z,101580.56
2023-05-13T17:51:49.859Z,101587.56
2023-05-13T17:53:51.381Z,101591.97
2023-05-13T17:55:53.760Z,101586.28
2023-05-13T17:57:58.966Z,101585.94
2023-05-13T18:00:00.638Z,101575.03
2023-05-13T18:02:02.224Z,101571.59
2023-05-13T18:04:03.638Z,101571.47
2023-05-13T18:06:05.255Z,101558.44
2023-05-13T18:08:07.077Z,101550.75
2023-05-13T18:10:08.809Z,101555.78
2023-05-13T18:12:10.457Z,101551.38
2023-05-13T18:14:12.093Z,101561.28
2023-05-13T18:16:13.644Z,101556.75
2023-05-13T18:18:16.267Z,101559.28
2023-05-13T18:20:18.252Z,101560.78
2023-05-13T18:22:19.744Z,101559.81
2023-05-13T18:24:21.304Z,101568.22
2023-05-13T18:26:23.266Z,101570.22
2023-05-13T18:28:24.858Z,101571.88
2023-05-13T18:30:26.476Z,101564.84
2023-05-13T18:32:27.945Z,101564.94
2023-05-13T18:34:29.756Z,101557.72
2023-05-13T18:36:31.261Z,101555.75
2023-05-13T18:38:32.736Z,101550.13
2023-05-13T18:40:34.222Z,101523.53
2023-05-13T18:42:35.788Z,101532.34
2023-05-13T18:44:37.254Z,101523.41
2023-05-13T18:46:38.787Z,101522.22
2023-05-13T18:48:40.519Z,101518.41
2023-05-13T18:50:41.976Z,101526.59
2023-05-13T18:52:43.510Z,101527.81
2023-05-13T18:54:45.020Z,101524.88
2023-05-13T18:56:46.676Z,101524.03
2023-05-13T18:58:48.186Z,101518.56
2023-05-13T19:00:49.688Z,101528.00
2023-05-13T19:02:51.264Z,101533.38
2023-05-13T19:04:52.795Z,101534.56
2023-05-13T19:06:54.228Z,101538.13
2023-05-13T19:08:55.744Z,101544.47
2023-05-13T19:10:57.188Z,101537.13
2023-05-13T19:12:58.771Z,101541.28
2023-05-13T19:15:00.275Z,101538.47
2023-05-13T19:17:01.886Z,101533.09
2023-05-13T19:19:03.470Z,101537.88
2023-05-13T19:21:04.964Z,101541.28
2023-05-13T19:23:06.528Z,101541.28
2023-05-13T19:25:08.279Z,101549.09
2023-05-13T19:27:10.077Z,101544.31
2023-05-13T19:29:11.585Z,101570.72
2023-05-13T19:31:13.100Z,101576.34
2023-05-13T19:33:15.032Z,101568.63
2023-05-13T19:35:16.649Z,101560.56
2023-05-13T19:37:18.173Z,101555.94
2023-05-13T19:39:19.604Z,101555.94
2023-05-13T19:41:22.517Z,101558.25
2023-05-13T19:43:24.443Z,101567.41
2023-05-13T19:45:25.988Z,101573.38
2023-05-13T19:47:27.781Z,101576.56
2023-05-13T19:49:29.288Z,101584.38
2023-05-13T19:51:30.993Z,101597.19
2023-05-13T19:53:32.672Z,101603.06
2023-05-13T19:55:34.925Z,101605.28
2023-05-13T19:57:36.930Z,101609.19
2023-05-13T19:59:41.582Z,101611.38
2023-05-13T20:01:43.363Z,101596.31
2023-05-13T20:03:44.857Z,101609.13
2023-05-13T20:05:48.162Z,101598.84
2023-05-13T20:07:49.618Z,101599.47
2023-05-13T20:09:51.244Z,101593.94
2023-05-13T20:11:53.068Z,101592.97
2023-05-13T20:13:54.718Z,101585.72
2023-05-13T20:15:56.185Z,101582.91
2023-05-13T20:17:57.737Z,101568.47
2023-05-13T20:19:59.307Z,101571.00
2023-05-13T20:22:01.171Z,101559.28
2023-05-13T20:24:02.668Z,101558.16
2023-05-13T20:26:04.131Z,101565.00
2023-05-13T20:28:05.906Z,101560.34
2023-05-13T20:30:08.453Z,101556.66
2023-05-13T20:32:10.183Z,101555.44
2023-05-13T20:34:11.663Z,101557.13
2023-05-13T20:36:13.762Z,101560.53
2023-05-13T20:38:15.202Z,101559.56
2023-05-13T20:40:16.758Z,101556.63
2023-05-13T20:42:20.297Z,101565.91
2023-05-13T20:44:22.161Z,101551.19
2023-05-13T20:46:23.731Z,101557.22
2023-05-13T20:48:25.223Z,101570.19
2023-05-13T20:50:27.512Z,101568.88
2023-05-13T20:52:29.002Z,101559.47
2023-05-13T20:54:30.455Z,101556.34
2023-05-13T20:56:31.907Z,101552.31
2023-05-13T20:58:33.381Z,101554.53
2023-05-13T21:00:34.836Z,101551.13
2023-05-13T21:02:36.296Z,101555.91
2023-05-13T21:04:37.717Z,101563.28
2023-05-13T21:06:39.091Z,101552.75
2023-05-13T21:08:40.606Z,101555.56
2023-05-13T21:10:42.023Z,101563.06
2023-05-13T21:12:47.469Z,101561.34
2023-05-13T21:14:49.054Z,101557.91
2023-05-13T21:16:50.680Z,101565.13
2023-05-13T21:18:52.118Z,101579.56
2023-05-13T21:20:53.697Z,101600.34
2023-05-13T21:22:55.103Z,101602.34
2023-05-13T21:24:56.672Z,101606.72
2023-05-13T21:26:58.212Z,101603.31
2023-05-13T21:28:59.644Z,101596.34
2023-05-13T21:31:01.340Z,101596.34
2023-05-13T21:33:02.983Z,101603.41
2023-05-13T21:35:04.733Z,101596.34
2023-05-13T21:37:06.192Z,101588.16
2023-05-13T21:39:09.373Z,101587.28
2023-05-13T21:41:10.847Z,101592.78
2023-05-13T21:43:12.305Z,101593.66
2023-05-13T21:45:15.021Z,101598.91
2023-05-13T21:47:16.968Z,101600.72
2023-05-13T21:49:18.360Z,101597.19
2023-05-13T21:51:19.801Z,101601.72
2023-05-13T21:53:22.343Z,101591.94
2023-05-13T21:55:24.118Z,101601.72
2023-05-13T21:57:25.570Z,101598.03
2023-05-13T21:59:26.996Z,101601.47
2023-05-13T22:01:28.559Z,101607.72
2023-05-13T22:03:30.123Z,101607.59
2023-05-13T22:05:31.703Z,101606.72
2023-05-13T22:07:33.196Z,101619.19
2023-05-13T22:09:34.722Z,101608.44
2023-05-13T22:11:36.388Z,101615.38
2023-05-13T22:13:38.155Z,101605.63
2023-05-13T22:15:39.670Z,101617.22
2023-05-13T22:17:41.355Z,101616.25
2023-05-13T22:19:42.871Z,101618.81
2023-05-13T22:21:44.475Z,101624.19
2023-05-13T22:23:45.928Z,101624.06
2023-05-13T22:25:47.464Z,101611.47
2023-05-13T22:27:50.795Z,101622.09
2023-05-13T22:29:52.295Z,101616.72
2023-05-13T22:31:53.760Z,101625.53
2023-05-13T22:33:55.304Z,101612.09
2023-05-13T22:35:56.753Z,101617.47
2023-05-13T22:37:58.321Z,101613.81
2023-05-13T22:39:59.755Z,101610.22
2023-05-13T22:42:01.212Z,101611.94
2023-05-13T22:44:02.644Z,101614.63
2023-05-13T22:46:04.185Z,101614.50
2023-05-13T22:48:05.800Z,101608.16
2023-05-13T22:50:07.643Z,101606.31
2023-05-13T22:52:09.102Z,101608.00
2023-05-13T22:54:10.637Z,101615.09
2023-05-13T22:56:12.210Z,101602.53
2023-05-13T22:58:13.732Z,101603.38
2023-05-13T23:00:15.708Z,101601.53
2023-05-13T23:02:17.308Z,101607.78
2023-05-13T23:04:18.948Z,101598.84
2023-05-13T23:06:20.581Z,101599.84
2023-05-13T23:08:22.755Z,101598.84
2023-05-13T23:10:24.330Z,101600.53
2023-05-13T23:12:26.540Z,101594.19
2023-05-13T23:14:29.986Z,101577.94
2023-05-13T23:16:31.609Z,101605.69